sensor_id;sensor_type;location;lat;lon;timestamp;temperature;humidity
3356;DHT22;1691;52.486;13.374;2023-12-20T00:02:16;7.80;98.70
3356;DHT22;1691;52.486;13.374;2023-12-20T00:04:43;7.80;98.70
3356;DHT22;1691;52.486;13.374;2023-12-20T00:07:10;7.80;98.70
3356;DHT22;1691;52.486;13.374;2023-12-20T00:09:38;7.80;98.70
3356;DHT22;1691;52.486;13.374;2023-12-20T00:12:05;7.80;98.70
3356;DHT22;1691;52.486;13.374;2023-12-20T00:14:32;7.80;98.70
3356;DHT22;1691;52.486;13.374;2023-12-20T00:16:59;7.80;98.70
3356;DHT22;1691;52.486;13.374;2023-12-20T00:19:27;7.80;98.70
3356;DHT22;1691;52.486;13.374;2023-12-20T00:21:54;7.80;98.70
3356;DHT22;1691;52.486;13.374;2023-12-20T00:24:26;7.80;98.70
3356;DHT22;1691;52.486;13.374;2023-12-20T00:26:53;7.80;98.70
3356;DHT22;1691;52.486;13.374;2023-12-20T00:29:20;7.80;98.70
3356;DHT22;1691;52.486;13.374;2023-12-20T00:31:47;7.80;98.70
3356;DHT22;1691;52.486;13.374;2023-12-20T00:34:14;7.80;98.70
3356;DHT22;1691;52.486;13.374;2023-12-20T00:36:41;7.80;98.70
3356;DHT22;1691;52.486;13.374;2023-12-20T00:39:08;7.80;98.70
3356;DHT22;1691;52.486;13.374;2023-12-20T00:41:35;7.80;98.70
3356;DHT22;1691;52.486;13.374;2023-12-20T00:44:02;7.80;98.70
3356;DHT22;1691;52.486;13.374;2023-12-20T00:46:29;7.80;98.70
3356;DHT22;1691;52.486;13.374;2023-12-20T00:48:56;7.80;98.70
3356;DHT22;1691;52.486;13.374;2023-12-20T00:51:23;7.80;98.70
3356;DHT22;1691;52.486;13.374;2023-12-20T00:53:51;7.80;98.70
3356;DHT22;1691;52.486;13.374;2023-12-20T00:56:21;7.70;98.70
3356;DHT22;1691;52.486;13.374;2023-12-20T00:58:48;7.70;98.70
3356;DHT22;1691;52.486;13.374;2023-12-20T01:01:15;7.70;98.70
3356;DHT22;1691;52.486;13.374;2023-12-20T01:03:42;7.80;98.70
3356;DHT22;1691;52.486;13.374;2023-12-20T01:06:10;7.80;98.70
3356;DHT22;1691;52.486;13.374;2023-12-20T01:08:37;7.80;98.70
3356;DHT22;1691;52.486;13.374;2023-12-20T01:11:05;7.80;98.70
3356;DHT22;1691;52.486;13.374;2023-12-20T01:13:32;7.80;98.70
3356;DHT22;1691;52.486;13.374;2023-12-20T01:15:59;7.80;98.70
3356;DHT22;1691;52.486;13.374;2023-12-20T01:18:26;7.80;98.70
3356;DHT22;1691;52.486;13.374;2023-12-20T01:20:54;7.80;98.70
3356;DHT22;1691;52.486;13.374;2023-12-20T01:23:21;7.80;98.70
3356;DHT22;1691;52.486;13.374;2023-12-20T01:25:48;7.80;98.70
3356;DHT22;1691;52.486;13.374;2023-12-20T01:28:15;7.80;98.70
3356;DHT22;1691;52.486;13.374;2023-12-20T01:30:42;7.80;98.70
3356;DHT22;1691;52.486;13.374;2023-12-20T01:33:10;7.80;98.70
3356;DHT22;1691;52.486;13.374;2023-12-20T01:35:37;7.80;98.70
3356;DHT22;1691;52.486;13.374;2023-12-20T01:38:04;7.80;98.70
3356;DHT22;1691;52.486;13.374;2023-12-20T01:40:31;7.80;98.70
3356;DHT22;1691;52.486;13.374;2023-12-20T01:43:02;7.80;98.70
3356;DHT22;1691;52.486;13.374;2023-12-20T01:45:33;7.80;98.70
3356;DHT22;1691;52.486;13.374;2023-12-20T01:48:01;7.80;98.70
3356;DHT22;1691;52.486;13.374;2023-12-20T01:50:31;7.80;98.70
3356;DHT22;1691;52.486;13.374;2023-12-20T01:53:00;7.80;98.70
3356;DHT22;1691;52.486;13.374;2023-12-20T01:55:29;7.80;98.70
3356;DHT22;1691;52.486;13.374;2023-12-20T01:57:59;7.80;98.70
3356;DHT22;1691;52.486;13.374;2023-12-20T02:00:28;7.80;98.70
3356;DHT22;1691;52.486;13.374;2023-12-20T02:02:56;7.80;98.70
3356;DHT22;1691;52.486;13.374;2023-12-20T02:05:24;7.80;98.70
3356;DHT22;1691;52.486;13.374;2023-12-20T02:07:52;7.80;98.70
3356;DHT22;1691;52.486;13.374;2023-12-20T02:10:19;7.80;98.70
3356;DHT22;1691;52.486;13.374;2023-12-20T02:12:47;7.80;98.70
3356;DHT22;1691;52.486;13.374;2023-12-20T02:15:14;7.80;98.70
3356;DHT22;1691;52.486;13.374;2023-12-20T02:17:41;7.80;98.70
3356;DHT22;1691;52.486;13.374;2023-12-20T02:20:09;7.80;98.70
3356;DHT22;1691;52.486;13.374;2023-12-20T02:22:36;7.90;98.70
3356;DHT22;1691;52.486;13.374;2023-12-20T02:25:03;7.90;98.70
3356;DHT22;1691;52.486;13.374;2023-12-20T02:27:30;7.90;98.70
3356;DHT22;1691;52.486;13.374;2023-12-20T02:29:58;7.90;98.70
3356;DHT22;1691;52.486;13.374;2023-12-20T02:32:25;7.90;98.70
3356;DHT22;1691;52.486;13.374;2023-12-20T02:34:55;7.90;98.70
3356;DHT22;1691;52.486;13.374;2023-12-20T02:37:23;7.90;98.70
3356;DHT22;1691;52.486;13.374;2023-12-20T02:39:50;7.90;98.70
3356;DHT22;1691;52.486;13.374;2023-12-20T02:42:17;7.90;98.70
3356;DHT22;1691;52.486;13.374;2023-12-20T02:44:44;7.90;98.70
3356;DHT22;1691;52.486;13.374;2023-12-20T02:47:11;7.90;98.70
3356;DHT22;1691;52.486;13.374;2023-12-20T02:49:38;7.90;98.70
3356;DHT22;1691;52.486;13.374;2023-12-20T02:52:05;7.90;98.70
3356;DHT22;1691;52.486;13.374;2023-12-20T02:54:32;7.90;98.70
3356;DHT22;1691;52.486;13.374;2023-12-20T02:56:59;7.80;98.70
3356;DHT22;1691;52.486;13.374;2023-12-20T02:59:26;7.80;98.70
3356;DHT22;1691;52.486;13.374;2023-12-20T03:01:53;7.80;98.70
3356;DHT22;1691;52.486;13.374;2023-12-20T03:04:20;7.80;98.70
3356;DHT22;1691;52.486;13.374;2023-12-20T03:06:47;7.80;98.70
3356;DHT22;1691;52.486;13.374;2023-12-20T03:09:14;7.80;98.70
3356;DHT22;1691;52.486;13.374;2023-12-20T03:11:41;7.80;98.70
3356;DHT22;1691;52.486;13.374;2023-12-20T03:14:08;7.80;98.70
3356;DHT22;1691;52.486;13.374;2023-12-20T03:16:35;7.80;98.70
3356;DHT22;1691;52.486;13.374;2023-12-20T03:19:02;7.80;98.70
3356;DHT22;1691;52.486;13.374;2023-12-20T03:21:29;7.80;98.70
3356;DHT22;1691;52.486;13.374;2023-12-20T03:23:56;7.80;98.70
3356;DHT22;1691;52.486;13.374;2023-12-20T03:26:23;7.80;98.70
3356;DHT22;1691;52.486;13.374;2023-12-20T03:28:50;7.80;98.70
3356;DHT22;1691;52.486;13.374;2023-12-20T03:31:18;7.70;98.70
3356;DHT22;1691;52.486;13.374;2023-12-20T03:33:46;7.70;98.70
3356;DHT22;1691;52.486;13.374;2023-12-20T03:36:13;7.70;98.70
3356;DHT22;1691;52.486;13.374;2023-12-20T03:38:40;7.70;98.70
3356;DHT22;1691;52.486;13.374;2023-12-20T03:41:07;7.70;98.70
3356;DHT22;1691;52.486;13.374;2023-12-20T03:43:34;7.80;98.70
3356;DHT22;1691;52.486;13.374;2023-12-20T03:46:02;7.80;98.70
3356;DHT22;1691;52.486;13.374;2023-12-20T03:48:31;7.80;98.70
3356;DHT22;1691;52.486;13.374;2023-12-20T03:50:58;7.80;98.70
3356;DHT22;1691;52.486;13.374;2023-12-20T03:53:25;7.80;98.70
3356;DHT22;1691;52.486;13.374;2023-12-20T03:55:52;7.80;98.70
3356;DHT22;1691;52.486;13.374;2023-12-20T03:58:19;7.80;98.70
3356;DHT22;1691;52.486;13.374;2023-12-20T04:00:46;7.70;98.70
3356;DHT22;1691;52.486;13.374;2023-12-20T04:03:13;7.70;98.70
3356;DHT22;1691;52.486;13.374;2023-12-20T04:05:41;7.70;98.70
3356;DHT22;1691;52.486;13.374;2023-12-20T04:08:09;7.70;98.70
3356;DHT22;1691;52.486;13.374;2023-12-20T04:10:36;7.70;98.70
3356;DHT22;1691;52.486;13.374;2023-12-20T04:13:04;7.70;98.70
3356;DHT22;1691;52.486;13.374;2023-12-20T04:15:31;7.70;98.70
3356;DHT22;1691;52.486;13.374;2023-12-20T04:17:58;7.70;98.70
3356;DHT22;1691;52.486;13.374;2023-12-20T04:20:25;7.70;98.70
3356;DHT22;1691;52.486;13.374;2023-12-20T04:22:52;7.60;98.70
3356;DHT22;1691;52.486;13.374;2023-12-20T04:25:19;7.60;98.70
3356;DHT22;1691;52.486;13.374;2023-12-20T04:27:46;7.50;98.70
3356;DHT22;1691;52.486;13.374;2023-12-20T04:30:14;7.50;98.70
3356;DHT22;1691;52.486;13.374;2023-12-20T04:32:41;7.40;98.70
3356;DHT22;1691;52.486;13.374;2023-12-20T04:35:08;7.40;98.70
3356;DHT22;1691;52.486;13.374;2023-12-20T04:37:35;7.30;98.70
3356;DHT22;1691;52.486;13.374;2023-12-20T04:40:02;7.20;98.70
3356;DHT22;1691;52.486;13.374;2023-12-20T04:42:30;7.10;98.70
3356;DHT22;1691;52.486;13.374;2023-12-20T04:44:56;7.10;98.70
3356;DHT22;1691;52.486;13.374;2023-12-20T04:47:23;7.00;98.70
3356;DHT22;1691;52.486;13.374;2023-12-20T04:49:50;6.90;98.70
3356;DHT22;1691;52.486;13.374;2023-12-20T04:52:17;6.90;98.70
3356;DHT22;1691;52.486;13.374;2023-12-20T04:54:45;6.80;98.70
3356;DHT22;1691;52.486;13.374;2023-12-20T04:57:12;6.80;98.70
3356;DHT22;1691;52.486;13.374;2023-12-20T04:59:41;6.80;98.70
3356;DHT22;1691;52.486;13.374;2023-12-20T05:02:08;6.70;98.70
3356;DHT22;1691;52.486;13.374;2023-12-20T05:04:35;6.70;98.70
3356;DHT22;1691;52.486;13.374;2023-12-20T05:07:02;6.70;98.70
3356;DHT22;1691;52.486;13.374;2023-12-20T05:09:31;6.70;98.70
3356;DHT22;1691;52.486;13.374;2023-12-20T05:11:58;6.60;98.70
3356;DHT22;1691;52.486;13.374;2023-12-20T05:14:27;6.60;98.70
3356;DHT22;1691;52.486;13.374;2023-12-20T05:16:54;6.60;98.70
3356;DHT22;1691;52.486;13.374;2023-12-20T05:19:20;6.70;98.70
3356;DHT22;1691;52.486;13.374;2023-12-20T05:21:48;6.70;98.70
3356;DHT22;1691;52.486;13.374;2023-12-20T05:24:15;6.80;98.70
3356;DHT22;1691;52.486;13.374;2023-12-20T05:26:41;6.90;98.70
3356;DHT22;1691;52.486;13.374;2023-12-20T05:29:08;6.80;98.70
3356;DHT22;1691;52.486;13.374;2023-12-20T05:31:35;6.70;98.70
3356;DHT22;1691;52.486;13.374;2023-12-20T05:34:02;6.60;98.70
3356;DHT22;1691;52.486;13.374;2023-12-20T05:36:30;6.50;98.70
3356;DHT22;1691;52.486;13.374;2023-12-20T05:38:57;6.40;98.70
3356;DHT22;1691;52.486;13.374;2023-12-20T05:41:24;6.30;98.70
3356;DHT22;1691;52.486;13.374;2023-12-20T05:43:50;6.20;98.70
3356;DHT22;1691;52.486;13.374;2023-12-20T05:46:17;6.20;98.70
3356;DHT22;1691;52.486;13.374;2023-12-20T05:48:44;6.10;98.70
3356;DHT22;1691;52.486;13.374;2023-12-20T05:51:12;6.10;98.70
3356;DHT22;1691;52.486;13.374;2023-12-20T05:53:39;6.00;98.70
3356;DHT22;1691;52.486;13.374;2023-12-20T05:56:06;6.00;98.70
3356;DHT22;1691;52.486;13.374;2023-12-20T05:58:33;5.90;98.70
3356;DHT22;1691;52.486;13.374;2023-12-20T06:01:01;5.80;98.70
3356;DHT22;1691;52.486;13.374;2023-12-20T06:03:30;5.80;98.70
3356;DHT22;1691;52.486;13.374;2023-12-20T06:05:57;5.80;98.70
3356;DHT22;1691;52.486;13.374;2023-12-20T06:08:39;5.70;98.70
3356;DHT22;1691;52.486;13.374;2023-12-20T06:11:06;5.70;98.70
3356;DHT22;1691;52.486;13.374;2023-12-20T06:13:33;5.80;98.70
3356;DHT22;1691;52.486;13.374;2023-12-20T06:16:00;5.80;98.70
3356;DHT22;1691;52.486;13.374;2023-12-20T06:18:27;5.70;98.70
3356;DHT22;1691;52.486;13.374;2023-12-20T06:20:54;5.70;98.70
3356;DHT22;1691;52.486;13.374;2023-12-20T06:23:21;5.70;98.70
3356;DHT22;1691;52.486;13.374;2023-12-20T06:25:48;5.70;98.70
3356;DHT22;1691;52.486;13.374;2023-12-20T06:28:15;5.70;98.70
3356;DHT22;1691;52.486;13.374;2023-12-20T06:30:42;5.70;98.70
3356;DHT22;1691;52.486;13.374;2023-12-20T06:33:09;5.70;98.70
3356;DHT22;1691;52.486;13.374;2023-12-20T06:35:38;5.70;98.70
3356;DHT22;1691;52.486;13.374;2023-12-20T06:38:05;5.70;98.70
3356;DHT22;1691;52.486;13.374;2023-12-20T06:40:32;5.60;98.70
3356;DHT22;1691;52.486;13.374;2023-12-20T06:42:59;5.60;98.70
3356;DHT22;1691;52.486;13.374;2023-12-20T06:45:38;5.70;98.70
3356;DHT22;1691;52.486;13.374;2023-12-20T06:48:05;5.70;98.70
3356;DHT22;1691;52.486;13.374;2023-12-20T06:50:32;5.70;98.70
3356;DHT22;1691;52.486;13.374;2023-12-20T06:52:59;5.70;98.70
3356;DHT22;1691;52.486;13.374;2023-12-20T06:55:35;5.70;98.70
3356;DHT22;1691;52.486;13.374;2023-12-20T06:58:02;5.80;98.70
3356;DHT22;1691;52.486;13.374;2023-12-20T07:00:31;5.80;98.70
3356;DHT22;1691;52.486;13.374;2023-12-20T07:02:59;5.80;98.70
3356;DHT22;1691;52.486;13.374;2023-12-20T07:05:26;5.80;98.70
3356;DHT22;1691;52.486;13.374;2023-12-20T07:07:53;5.90;98.70
3356;DHT22;1691;52.486;13.374;2023-12-20T07:10:20;5.90;98.70
3356;DHT22;1691;52.486;13.374;2023-12-20T07:12:47;5.90;98.70
3356;DHT22;1691;52.486;13.374;2023-12-20T07:15:15;5.90;98.70
3356;DHT22;1691;52.486;13.374;2023-12-20T07:17:42;6.00;98.70
3356;DHT22;1691;52.486;13.374;2023-12-20T07:20:11;6.00;98.70
3356;DHT22;1691;52.486;13.374;2023-12-20T07:22:38;6.10;98.70
3356;DHT22;1691;52.486;13.374;2023-12-20T07:25:06;6.10;98.70
3356;DHT22;1691;52.486;13.374;2023-12-20T07:27:34;6.10;98.70
3356;DHT22;1691;52.486;13.374;2023-12-20T07:30:01;6.10;98.70
3356;DHT22;1691;52.486;13.374;2023-12-20T07:32:28;6.20;98.70
3356;DHT22;1691;52.486;13.374;2023-12-20T07:34:55;6.20;98.70
3356;DHT22;1691;52.486;13.374;2023-12-20T07:37:22;6.20;98.70
3356;DHT22;1691;52.486;13.374;2023-12-20T07:39:49;6.20;98.70
3356;DHT22;1691;52.486;13.374;2023-12-20T07:42:16;6.20;98.70
3356;DHT22;1691;52.486;13.374;2023-12-20T07:44:43;6.20;98.70
3356;DHT22;1691;52.486;13.374;2023-12-20T07:47:10;6.20;98.70
3356;DHT22;1691;52.486;13.374;2023-12-20T07:49:38;6.20;98.70
3356;DHT22;1691;52.486;13.374;2023-12-20T07:52:05;6.20;98.70
3356;DHT22;1691;52.486;13.374;2023-12-20T07:54:33;6.20;98.70
3356;DHT22;1691;52.486;13.374;2023-12-20T07:57:00;6.20;98.70
3356;DHT22;1691;52.486;13.374;2023-12-20T07:59:26;6.20;98.70
3356;DHT22;1691;52.486;13.374;2023-12-20T08:01:58;6.30;98.70
3356;DHT22;1691;52.486;13.374;2023-12-20T08:04:26;6.30;98.70
3356;DHT22;1691;52.486;13.374;2023-12-20T08:06:54;6.30;98.70
3356;DHT22;1691;52.486;13.374;2023-12-20T08:09:21;6.30;98.70
3356;DHT22;1691;52.486;13.374;2023-12-20T08:11:48;6.30;98.70
3356;DHT22;1691;52.486;13.374;2023-12-20T08:14:15;6.30;98.70
3356;DHT22;1691;52.486;13.374;2023-12-20T08:16:42;6.40;98.70
3356;DHT22;1691;52.486;13.374;2023-12-20T08:19:09;6.40;98.70
3356;DHT22;1691;52.486;13.374;2023-12-20T08:21:36;6.40;98.70
3356;DHT22;1691;52.486;13.374;2023-12-20T08:24:05;6.40;98.70
3356;DHT22;1691;52.486;13.374;2023-12-20T08:26:32;6.40;98.70
3356;DHT22;1691;52.486;13.374;2023-12-20T08:29:00;6.40;98.70
3356;DHT22;1691;52.486;13.374;2023-12-20T08:31:28;6.40;98.70
3356;DHT22;1691;52.486;13.374;2023-12-20T08:33:56;6.50;98.70
3356;DHT22;1691;52.486;13.374;2023-12-20T08:36:23;6.50;98.70
3356;DHT22;1691;52.486;13.374;2023-12-20T08:38:51;6.50;98.70
3356;DHT22;1691;52.486;13.374;2023-12-20T08:41:18;6.50;98.70
3356;DHT22;1691;52.486;13.374;2023-12-20T08:43:45;6.50;98.70
3356;DHT22;1691;52.486;13.374;2023-12-20T08:46:13;6.60;98.70
3356;DHT22;1691;52.486;13.374;2023-12-20T08:48:41;6.70;98.70
3356;DHT22;1691;52.486;13.374;2023-12-20T08:51:08;6.80;98.70
3356;DHT22;1691;52.486;13.374;2023-12-20T08:53:36;6.90;98.70
3356;DHT22;1691;52.486;13.374;2023-12-20T08:56:03;7.10;98.70
3356;DHT22;1691;52.486;13.374;2023-12-20T08:58:30;7.20;98.70
3356;DHT22;1691;52.486;13.374;2023-12-20T09:00:58;7.40;98.70
3356;DHT22;1691;52.486;13.374;2023-12-20T09:03:25;7.40;98.70
3356;DHT22;1691;52.486;13.374;2023-12-20T09:05:52;7.40;98.70
3356;DHT22;1691;52.486;13.374;2023-12-20T09:08:19;7.40;98.70
3356;DHT22;1691;52.486;13.374;2023-12-20T09:10:46;7.30;98.70
3356;DHT22;1691;52.486;13.374;2023-12-20T09:13:13;7.30;98.70
3356;DHT22;1691;52.486;13.374;2023-12-20T09:15:40;7.40;98.70
3356;DHT22;1691;52.486;13.374;2023-12-20T09:18:07;7.50;98.70
3356;DHT22;1691;52.486;13.374;2023-12-20T09:20:35;7.60;98.70
3356;DHT22;1691;52.486;13.374;2023-12-20T09:23:04;7.60;98.70
3356;DHT22;1691;52.486;13.374;2023-12-20T09:25:31;7.60;98.70
3356;DHT22;1691;52.486;13.374;2023-12-20T09:27:58;7.50;98.70
3356;DHT22;1691;52.486;13.374;2023-12-20T09:30:25;7.50;98.70
3356;DHT22;1691;52.486;13.374;2023-12-20T09:32:56;7.50;98.70
3356;DHT22;1691;52.486;13.374;2023-12-20T09:35:24;7.50;98.70
3356;DHT22;1691;52.486;13.374;2023-12-20T09:37:53;7.40;98.70
3356;DHT22;1691;52.486;13.374;2023-12-20T09:40:20;7.40;98.70
3356;DHT22;1691;52.486;13.374;2023-12-20T09:45:35;7.40;98.70
3356;DHT22;1691;52.486;13.374;2023-12-20T09:48:03;7.40;98.70
3356;DHT22;1691;52.486;13.374;2023-12-20T09:50:31;7.40;98.70
3356;DHT22;1691;52.486;13.374;2023-12-20T09:53:01;7.40;98.70
3356;DHT22;1691;52.486;13.374;2023-12-20T09:55:30;7.40;98.70
3356;DHT22;1691;52.486;13.374;2023-12-20T09:57:59;7.40;98.70
3356;DHT22;1691;52.486;13.374;2023-12-20T10:00:27;7.40;98.70
3356;DHT22;1691;52.486;13.374;2023-12-20T10:02:58;7.40;98.70
3356;DHT22;1691;52.486;13.374;2023-12-20T10:05:31;7.50;98.70
3356;DHT22;1691;52.486;13.374;2023-12-20T10:08:00;7.50;98.70
3356;DHT22;1691;52.486;13.374;2023-12-20T10:10:29;7.50;98.70
3356;DHT22;1691;52.486;13.374;2023-12-20T10:13:12;7.50;98.70
3356;DHT22;1691;52.486;13.374;2023-12-20T10:15:40;7.50;98.70
3356;DHT22;1691;52.486;13.374;2023-12-20T10:18:08;7.50;98.70
3356;DHT22;1691;52.486;13.374;2023-12-20T10:20:36;7.50;98.70
3356;DHT22;1691;52.486;13.374;2023-12-20T10:23:03;7.50;98.70
3356;DHT22;1691;52.486;13.374;2023-12-20T10:25:30;7.50;98.70
3356;DHT22;1691;52.486;13.374;2023-12-20T10:28:11;7.60;98.70
3356;DHT22;1691;52.486;13.374;2023-12-20T10:30:47;7.60;98.70
3356;DHT22;1691;52.486;13.374;2023-12-20T10:33:26;7.50;98.70
3356;DHT22;1691;52.486;13.374;2023-12-20T10:35:56;7.60;98.70
3356;DHT22;1691;52.486;13.374;2023-12-20T10:38:23;7.60;98.70
3356;DHT22;1691;52.486;13.374;2023-12-20T10:40:54;7.60;98.70
3356;DHT22;1691;52.486;13.374;2023-12-20T10:43:26;7.60;98.70
3356;DHT22;1691;52.486;13.374;2023-12-20T10:45:54;7.60;98.70
3356;DHT22;1691;52.486;13.374;2023-12-20T10:48:21;7.70;98.70
3356;DHT22;1691;52.486;13.374;2023-12-20T10:50:55;7.70;98.70
3356;DHT22;1691;52.486;13.374;2023-12-20T10:53:26;7.70;98.70
3356;DHT22;1691;52.486;13.374;2023-12-20T10:55:55;7.80;98.70
3356;DHT22;1691;52.486;13.374;2023-12-20T10:58:26;7.90;98.70
3356;DHT22;1691;52.486;13.374;2023-12-20T11:01:00;7.90;98.70
3356;DHT22;1691;52.486;13.374;2023-12-20T11:03:34;7.90;98.70
3356;DHT22;1691;52.486;13.374;2023-12-20T11:06:09;7.90;98.70
3356;DHT22;1691;52.486;13.374;2023-12-20T11:15:38;7.80;98.70
3356;DHT22;1691;52.486;13.374;2023-12-20T11:18:05;7.70;98.70
3356;DHT22;1691;52.486;13.374;2023-12-20T11:20:37;7.70;98.70
3356;DHT22;1691;52.486;13.374;2023-12-20T11:23:06;7.70;98.70
3356;DHT22;1691;52.486;13.374;2023-12-20T11:28:24;7.70;98.70
3356;DHT22;1691;52.486;13.374;2023-12-20T11:30:52;7.70;98.70
3356;DHT22;1691;52.486;13.374;2023-12-20T11:33:45;7.70;98.70
3356;DHT22;1691;52.486;13.374;2023-12-20T11:36:18;7.70;98.70
3356;DHT22;1691;52.486;13.374;2023-12-20T11:38:57;7.60;98.70
3356;DHT22;1691;52.486;13.374;2023-12-20T11:41:25;7.60;98.70
3356;DHT22;1691;52.486;13.374;2023-12-20T11:43:53;7.60;98.70
3356;DHT22;1691;52.486;13.374;2023-12-20T11:46:21;7.50;98.70
3356;DHT22;1691;52.486;13.374;2023-12-20T11:48:48;7.50;98.70
3356;DHT22;1691;52.486;13.374;2023-12-20T11:51:15;7.60;98.70
3356;DHT22;1691;52.486;13.374;2023-12-20T11:53:42;7.60;98.70
3356;DHT22;1691;52.486;13.374;2023-12-20T11:56:10;7.60;98.70
3356;DHT22;1691;52.486;13.374;2023-12-20T11:58:37;7.60;98.70
3356;DHT22;1691;52.486;13.374;2023-12-20T12:01:05;7.50;98.70
3356;DHT22;1691;52.486;13.374;2023-12-20T12:03:35;7.50;98.70
3356;DHT22;1691;52.486;13.374;2023-12-20T12:06:02;7.50;98.70
3356;DHT22;1691;52.486;13.374;2023-12-20T12:08:32;7.50;98.70
3356;DHT22;1691;52.486;13.374;2023-12-20T12:10:59;7.50;98.70
3356;DHT22;1691;52.486;13.374;2023-12-20T12:13:26;7.50;98.70
3356;DHT22;1691;52.486;13.374;2023-12-20T12:15:54;7.60;98.70
3356;DHT22;1691;52.486;13.374;2023-12-20T12:18:21;7.60;98.70
3356;DHT22;1691;52.486;13.374;2023-12-20T12:20:49;7.60;98.70
3356;DHT22;1691;52.486;13.374;2023-12-20T12:23:23;7.60;98.70
3356;DHT22;1691;52.486;13.374;2023-12-20T12:25:51;7.70;98.70
3356;DHT22;1691;52.486;13.374;2023-12-20T12:28:18;7.70;98.70
3356;DHT22;1691;52.486;13.374;2023-12-20T12:30:58;7.70;98.70
3356;DHT22;1691;52.486;13.374;2023-12-20T12:33:26;7.70;98.70
3356;DHT22;1691;52.486;13.374;2023-12-20T12:35:53;7.70;98.70
3356;DHT22;1691;52.486;13.374;2023-12-20T12:38:21;7.60;98.70
3356;DHT22;1691;52.486;13.374;2023-12-20T12:40:49;7.50;98.70
3356;DHT22;1691;52.486;13.374;2023-12-20T12:43:17;7.50;98.70
3356;DHT22;1691;52.486;13.374;2023-12-20T12:45:44;7.40;98.70
3356;DHT22;1691;52.486;13.374;2023-12-20T12:48:11;7.40;98.70
3356;DHT22;1691;52.486;13.374;2023-12-20T12:50:38;7.30;98.70
3356;DHT22;1691;52.486;13.374;2023-12-20T12:53:05;7.30;98.70
3356;DHT22;1691;52.486;13.374;2023-12-20T12:55:34;7.30;98.70
3356;DHT22;1691;52.486;13.374;2023-12-20T12:58:01;7.20;98.70
3356;DHT22;1691;52.486;13.374;2023-12-20T13:00:28;7.20;98.70
3356;DHT22;1691;52.486;13.374;2023-12-20T13:02:55;7.20;98.70
3356;DHT22;1691;52.486;13.374;2023-12-20T13:05:22;7.10;98.70
3356;DHT22;1691;52.486;13.374;2023-12-20T13:07:50;7.10;98.70
3356;DHT22;1691;52.486;13.374;2023-12-20T13:10:17;7.10;98.70
3356;DHT22;1691;52.486;13.374;2023-12-20T13:12:44;7.10;98.70
3356;DHT22;1691;52.486;13.374;2023-12-20T13:15:11;7.10;98.70
3356;DHT22;1691;52.486;13.374;2023-12-20T13:17:39;7.10;98.70
3356;DHT22;1691;52.486;13.374;2023-12-20T13:20:07;7.10;98.70
3356;DHT22;1691;52.486;13.374;2023-12-20T13:22:34;7.10;98.70
3356;DHT22;1691;52.486;13.374;2023-12-20T13:25:02;7.10;98.70
3356;DHT22;1691;52.486;13.374;2023-12-20T13:27:30;7.00;98.70
3356;DHT22;1691;52.486;13.374;2023-12-20T13:29:57;7.00;98.70
3356;DHT22;1691;52.486;13.374;2023-12-20T13:32:24;6.90;98.70
3356;DHT22;1691;52.486;13.374;2023-12-20T13:34:52;6.70;98.70
3356;DHT22;1691;52.486;13.374;2023-12-20T13:37:19;6.50;98.70
3356;DHT22;1691;52.486;13.374;2023-12-20T13:39:46;6.40;98.70
3356;DHT22;1691;52.486;13.374;2023-12-20T13:42:13;6.40;98.70
3356;DHT22;1691;52.486;13.374;2023-12-20T13:44:41;6.30;98.70
3356;DHT22;1691;52.486;13.374;2023-12-20T13:47:08;6.30;98.70
3356;DHT22;1691;52.486;13.374;2023-12-20T13:49:35;6.20;98.70
3356;DHT22;1691;52.486;13.374;2023-12-20T13:52:02;6.20;98.70
3356;DHT22;1691;52.486;13.374;2023-12-20T13:54:30;6.20;98.70
3356;DHT22;1691;52.486;13.374;2023-12-20T13:56:57;6.20;98.70
3356;DHT22;1691;52.486;13.374;2023-12-20T13:59:38;6.10;98.70
3356;DHT22;1691;52.486;13.374;2023-12-20T14:02:05;6.10;98.70
3356;DHT22;1691;52.486;13.374;2023-12-20T14:04:32;6.00;98.70
3356;DHT22;1691;52.486;13.374;2023-12-20T14:07:10;6.00;98.70
3356;DHT22;1691;52.486;13.374;2023-12-20T14:09:39;5.90;98.70
3356;DHT22;1691;52.486;13.374;2023-12-20T14:12:13;5.90;98.70
3356;DHT22;1691;52.486;13.374;2023-12-20T14:14:40;5.90;98.70
3356;DHT22;1691;52.486;13.374;2023-12-20T14:17:07;5.80;98.70
3356;DHT22;1691;52.486;13.374;2023-12-20T14:19:35;5.80;98.70
3356;DHT22;1691;52.486;13.374;2023-12-20T14:22:03;5.70;98.70
3356;DHT22;1691;52.486;13.374;2023-12-20T14:24:31;5.70;98.70
3356;DHT22;1691;52.486;13.374;2023-12-20T14:26:58;5.70;98.70
3356;DHT22;1691;52.486;13.374;2023-12-20T14:29:25;5.60;98.70
3356;DHT22;1691;52.486;13.374;2023-12-20T14:31:53;5.60;98.70
3356;DHT22;1691;52.486;13.374;2023-12-20T14:34:20;5.60;98.70
3356;DHT22;1691;52.486;13.374;2023-12-20T14:36:47;5.60;98.70
3356;DHT22;1691;52.486;13.374;2023-12-20T14:39:15;5.70;98.70
3356;DHT22;1691;52.486;13.374;2023-12-20T14:41:43;5.70;98.70
3356;DHT22;1691;52.486;13.374;2023-12-20T14:44:10;5.80;98.70
3356;DHT22;1691;52.486;13.374;2023-12-20T14:46:37;5.90;98.70
3356;DHT22;1691;52.486;13.374;2023-12-20T14:49:07;5.90;98.70
3356;DHT22;1691;52.486;13.374;2023-12-20T14:51:35;6.00;98.70
3356;DHT22;1691;52.486;13.374;2023-12-20T14:54:03;6.00;98.70
3356;DHT22;1691;52.486;13.374;2023-12-20T14:56:31;6.00;98.70
3356;DHT22;1691;52.486;13.374;2023-12-20T14:58:58;6.10;98.70
3356;DHT22;1691;52.486;13.374;2023-12-20T15:01:28;6.00;98.70
3356;DHT22;1691;52.486;13.374;2023-12-20T15:03:57;6.00;98.70
3356;DHT22;1691;52.486;13.374;2023-12-20T15:06:24;6.00;98.70
3356;DHT22;1691;52.486;13.374;2023-12-20T15:08:52;6.00;98.70
3356;DHT22;1691;52.486;13.374;2023-12-20T15:11:19;5.90;98.70
3356;DHT22;1691;52.486;13.374;2023-12-20T15:13:46;5.90;98.70
3356;DHT22;1691;52.486;13.374;2023-12-20T15:16:21;5.90;98.70
3356;DHT22;1691;52.486;13.374;2023-12-20T15:18:49;5.90;98.70
3356;DHT22;1691;52.486;13.374;2023-12-20T15:21:17;5.90;98.70
3356;DHT22;1691;52.486;13.374;2023-12-20T15:23:44;5.90;98.70
3356;DHT22;1691;52.486;13.374;2023-12-20T15:26:19;5.90;98.70
3356;DHT22;1691;52.486;13.374;2023-12-20T15:28:46;5.90;98.70
3356;DHT22;1691;52.486;13.374;2023-12-20T15:31:13;5.80;98.70
3356;DHT22;1691;52.486;13.374;2023-12-20T15:33:40;5.80;98.70
3356;DHT22;1691;52.486;13.374;2023-12-20T15:36:08;5.70;98.70
3356;DHT22;1691;52.486;13.374;2023-12-20T15:38:34;5.70;98.70
3356;DHT22;1691;52.486;13.374;2023-12-20T15:41:02;5.60;98.70
3356;DHT22;1691;52.486;13.374;2023-12-20T15:43:29;5.60;98.70
3356;DHT22;1691;52.486;13.374;2023-12-20T15:45:56;5.50;98.70
3356;DHT22;1691;52.486;13.374;2023-12-20T15:48:23;5.50;98.70
3356;DHT22;1691;52.486;13.374;2023-12-20T15:50:56;5.50;98.70
3356;DHT22;1691;52.486;13.374;2023-12-20T15:53:23;5.40;98.70
3356;DHT22;1691;52.486;13.374;2023-12-20T15:55:50;5.40;98.70
3356;DHT22;1691;52.486;13.374;2023-12-20T15:58:17;5.30;98.70
3356;DHT22;1691;52.486;13.374;2023-12-20T16:00:45;5.30;98.70
3356;DHT22;1691;52.486;13.374;2023-12-20T16:03:11;5.20;98.70
3356;DHT22;1691;52.486;13.374;2023-12-20T16:05:52;5.20;98.70
3356;DHT22;1691;52.486;13.374;2023-12-20T16:08:20;5.20;98.70
3356;DHT22;1691;52.486;13.374;2023-12-20T16:10:47;5.10;98.70
3356;DHT22;1691;52.486;13.374;2023-12-20T16:13:14;5.10;98.70
3356;DHT22;1691;52.486;13.374;2023-12-20T16:15:41;5.10;98.70
3356;DHT22;1691;52.486;13.374;2023-12-20T16:18:09;5.00;98.70
3356;DHT22;1691;52.486;13.374;2023-12-20T16:20:38;5.00;98.70